Time;durP1;ratioP1;P1;durP2;ratioP2;P2;SDS_P1;SDS_P2;PMS_P1;PMS_P2;Temp;Humidity;BMP_temperature;BMP_pressure;BME280_temperature;BME280_humidity;BME280_pressure;Samples;Min_cycle;Max_cycle;Signal;HPM_P1;HPM_P2
2021/12/04 00:01:21;;;;;;;;;;;19.40;35.20;;;;;;5075734;28;19952;-82
2021/12/04 00:03:47;;;;;;;;;;;20.20;34.10;;;;;;5076050;28;19920;-80
2021/12/04 00:06:36;;;;;;;;;;;20.90;33.40;;;;;;5076036;28;19909;-79
2021/12/04 00:09:04;;;;;;;;;;;21.50;33.10;;;;;;5075754;28;19909;-81
2021/12/04 00:11:30;;;;;;;;;;;21.90;32.80;;;;;;5058900;28;20279;-82
2021/12/04 00:13:55;;;;;;;;;;;22.30;32.80;;;;;;5058832;28;19966;-80
2021/12/04 00:16:21;;;;;;;;;;;22.50;32.70;;;;;;5075775;28;19908;-80
2021/12/04 00:18:49;;;;;;;;;;;22.70;32.60;;;;;;5075398;28;20265;-80
2021/12/04 00:21:19;;;;;;;;;;;22.90;32.70;;;;;;5059021;28;20295;-80
2021/12/04 00:23:44;;;;;;;;;;;23.00;32.80;;;;;;5075452;28;19999;-78
2021/12/04 00:26:10;;;;;;;;;;;23.10;32.90;;;;;;5075192;28;19991;-79
2021/12/04 00:28:36;;;;;;;;;;;23.20;33.00;;;;;;5075180;28;19996;-80
2021/12/04 00:31:08;;;;;;;;;;;23.30;33.00;;;;;;5058477;28;19919;-79
2021/12/04 00:33:36;;;;;;;;;;;23.30;33.10;;;;;;5075102;28;20253;-80
2021/12/04 00:36:14;;;;;;;;;;;23.40;33.20;;;;;;5058861;28;19920;-82
2021/12/04 00:49:36;;;;;;;;;;;23.60;33.70;;;;;;5076008;28;19955;-81
2021/12/04 00:52:04;;;;;;;;;;;23.70;34.60;;;;;;5057587;28;19956;-83
2021/12/04 00:54:29;;;;;;;;;;;23.70;36.30;;;;;;5075008;28;20003;-83
2021/12/04 00:56:57;;;;;;;;;;;23.60;40.10;;;;;;5075032;28;19959;-82
2021/12/04 00:59:23;;;;;;;;;;;23.50;40.40;;;;;;5068770;28;19961;-80
2021/12/04 01:01:48;;;;;;;;;;;23.50;40.10;;;;;;5079402;28;19909;-81
2021/12/04 01:04:15;;;;;;;;;;;23.50;39.80;;;;;;5074708;28;19919;-81
2021/12/04 01:06:41;;;;;;;;;;;23.50;39.50;;;;;;5074992;28;19908;-81
2021/12/04 01:09:10;;;;;;;;;;;23.50;39.20;;;;;;5074778;28;19908;-79
2021/12/04 01:11:36;;;;;;;;;;;23.50;38.90;;;;;;5057884;28;20424;-81
2021/12/04 01:14:01;;;;;;;;;;;23.60;38.40;;;;;;5069639;28;19948;-81
2021/12/04 01:16:27;;;;;;;;;;;23.60;38.90;;;;;;5074866;28;19924;-82
2021/12/04 01:18:52;;;;;;;;;;;23.60;40.10;;;;;;5082792;28;20020;-81
2021/12/04 01:21:20;;;;;;;;;;;23.60;40.70;;;;;;5074535;28;19954;-79
2021/12/04 01:23:46;;;;;;;;;;;23.60;40.60;;;;;;5056941;28;20015;-83
2021/12/04 01:26:11;;;;;;;;;;;23.70;40.50;;;;;;5058073;28;19959;-82
2021/12/04 01:28:37;;;;;;;;;;;23.70;40.30;;;;;;5074903;28;19924;-80
2021/12/04 01:31:02;;;;;;;;;;;23.70;40.20;;;;;;5074541;28;19909;-78
2021/12/04 01:33:30;;;;;;;;;;;23.80;40.00;;;;;;5074621;28;19966;-80
2021/12/04 01:35:56;;;;;;;;;;;23.80;39.80;;;;;;5058245;28;19908;-82
2021/12/04 01:38:23;;;;;;;;;;;23.90;39.70;;;;;;5057703;28;19965;-81
2021/12/04 01:40:51;;;;;;;;;;;23.90;39.70;;;;;;5074801;28;19908;-79
2021/12/04 01:43:17;;;;;;;;;;;23.90;39.60;;;;;;5074614;28;19908;-82
2021/12/04 01:45:42;;;;;;;;;;;23.90;39.40;;;;;;5057701;28;20234;-81
2021/12/04 01:48:08;;;;;;;;;;;23.90;39.50;;;;;;5057894;28;20311;-83
2021/12/04 01:50:33;;;;;;;;;;;24.00;39.20;;;;;;5058002;28;19908;-80
2021/12/04 01:53:00;;;;;;;;;;;24.00;38.80;;;;;;5074372;28;19908;-81
2021/12/04 01:55:26;;;;;;;;;;;24.00;38.60;;;;;;5057963;28;19919;-80
2021/12/04 01:57:52;;;;;;;;;;;24.00;38.50;;;;;;5057711;28;19912;-82
2021/12/04 02:00:17;;;;;;;;;;;24.00;39.50;;;;;;5071966;28;19923;-82
2021/12/04 02:02:43;;;;;;;;;;;23.90;40.10;;;;;;5095644;28;19908;-84
2021/12/04 02:05:11;;;;;;;;;;;24.00;40.10;;;;;;5094933;28;19912;-80
2021/12/04 02:07:37;;;;;;;;;;;24.00;40.10;;;;;;5094914;28;19916;-81
2021/12/04 02:10:03;;;;;;;;;;;24.00;40.10;;;;;;5093842;28;20039;-81
2021/12/04 02:12:29;;;;;;;;;;;24.00;40.00;;;;;;5093850;28;20370;-82
2021/12/04 02:14:54;;;;;;;;;;;24.00;39.90;;;;;;5094199;28;20364;-83
2021/12/04 02:17:19;;;;;;;;;;;24.00;39.90;;;;;;5094318;28;19909;-86
2021/12/04 02:19:48;;;;;;;;;;;24.10;39.90;;;;;;5094196;28;20359;-80
2021/12/04 02:22:16;;;;;;;;;;;24.10;39.90;;;;;;5094337;28;19919;-85
2021/12/04 02:24:43;;;;;;;;;;;24.10;39.80;;;;;;5093838;28;19973;-81
2021/12/04 02:27:12;;;;;;;;;;;24.20;39.90;;;;;;5094128;28;19908;-80
2021/12/04 02:29:45;;;;;;;;;;;24.20;39.90;;;;;;5095079;28;19923;-81
2021/12/04 02:32:11;;;;;;;;;;;24.20;39.70;;;;;;5094302;28;19908;-81
2021/12/04 02:34:39;;;;;;;;;;;24.20;39.80;;;;;;5095353;28;19908;-83
2021/12/04 02:37:08;;;;;;;;;;;24.20;39.60;;;;;;5080714;28;19995;-81
2021/12/04 02:39:35;;;;;;;;;;;24.20;39.50;;;;;;5097270;28;19924;-81
2021/12/04 02:42:02;;;;;;;;;;;24.20;39.50;;;;;;5097374;28;19908;-81
2021/12/04 02:44:35;;;;;;;;;;;24.20;39.40;;;;;;5080364;28;19912;-86
2021/12/04 02:47:01;;;;;;;;;;;24.20;39.40;;;;;;5096886;28;20260;-82
2021/12/04 02:49:28;;;;;;;;;;;24.20;39.40;;;;;;5097169;28;19909;-82
2021/12/04 02:51:54;;;;;;;;;;;24.20;39.50;;;;;;5080396;28;19908;-80
2021/12/04 02:54:19;;;;;;;;;;;24.10;39.40;;;;;;5097011;28;20236;-81
2021/12/04 02:56:49;;;;;;;;;;;24.10;39.50;;;;;;5096979;28;20292;-83
2021/12/04 02:59:17;;;;;;;;;;;24.10;39.50;;;;;;5096894;28;19999;-80
2021/12/04 03:01:43;;;;;;;;;;;24.10;39.60;;;;;;5097653;28;19908;-82
2021/12/04 03:04:09;;;;;;;;;;;24.00;39.60;;;;;;5096974;28;20014;-81
2021/12/04 03:06:39;;;;;;;;;;;24.00;39.60;;;;;;5097132;28;19912;-80
2021/12/04 03:09:04;;;;;;;;;;;24.00;39.60;;;;;;5096838;28;19909;-82
2021/12/04 03:11:32;;;;;;;;;;;24.00;39.60;;;;;;5097809;28;19909;-82
2021/12/04 03:14:00;;;;;;;;;;;23.90;39.60;;;;;;5097576;28;19918;-81
2021/12/04 03:16:26;;;;;;;;;;;24.00;39.60;;;;;;5079950;28;19930;-81
2021/12/04 03:18:51;;;;;;;;;;;23.90;39.50;;;;;;5096625;28;19912;-80
2021/12/04 03:21:17;;;;;;;;;;;23.90;39.50;;;;;;5079598;28;20003;-80
2021/12/04 03:23:52;;;;;;;;;;;23.90;39.60;;;;;;5097386;28;19998;-81
2021/12/04 03:26:22;;;;;;;;;;;23.90;39.50;;;;;;5096817;28;20511;-83
2021/12/04 03:28:50;;;;;;;;;;;23.90;39.50;;;;;;5079757;28;19923;-84
2021/12/04 03:42:16;;;;;;;;;;;23.80;39.70;;;;;;5096467;28;19934;-83
2021/12/04 03:44:47;;;;;;;;;;;23.80;39.70;;;;;;5097017;28;20511;-80
2021/12/04 03:47:12;;;;;;;;;;;23.80;39.70;;;;;;5095192;28;19916;-79
2021/12/04 03:49:38;;;;;;;;;;;23.80;39.70;;;;;;5096156;28;20318;-81
2021/12/04 03:52:07;;;;;;;;;;;23.80;39.70;;;;;;5095878;28;19955;-80
2021/12/04 03:54:32;;;;;;;;;;;23.80;39.70;;;;;;5096694;28;19908;-80
2021/12/04 03:57:03;;;;;;;;;;;23.80;39.70;;;;;;5095807;28;19923;-81
2021/12/04 03:59:31;;;;;;;;;;;23.80;39.70;;;;;;5085558;28;20349;-82
2021/12/04 04:01:59;;;;;;;;;;;23.80;39.70;;;;;;5059410;28;19912;-81
2021/12/04 04:04:27;;;;;;;;;;;23.80;39.70;;;;;;5076207;28;20329;-79
2021/12/04 04:06:53;;;;;;;;;;;23.80;39.70;;;;;;5059208;28;19909;-82
2021/12/04 04:09:18;;;;;;;;;;;23.80;39.70;;;;;;5075940;28;20368;-82
2021/12/04 04:11:44;;;;;;;;;;;23.80;39.80;;;;;;5059333;28;20249;-81
2021/12/04 04:14:12;;;;;;;;;;;23.80;39.70;;;;;;5075775;28;19908;-82
2021/12/04 04:16:41;;;;;;;;;;;23.70;39.70;;;;;;5075695;28;19912;-84
2021/12/04 04:19:06;;;;;;;;;;;23.70;39.70;;;;;;5059015;28;19912;-80
2021/12/04 04:21:35;;;;;;;;;;;23.70;39.80;;;;;;5059149;28;19931;-84
2021/12/04 04:24:03;;;;;;;;;;;23.70;39.80;;;;;;5075564;28;19927;-82
2021/12/04 04:26:31;;;;;;;;;;;23.70;39.80;;;;;;5075699;28;19921;-79
2021/12/04 04:28:59;;;;;;;;;;;23.70;39.80;;;;;;5058760;28;20333;-83
2021/12/04 04:31:24;;;;;;;;;;;23.70;39.80;;;;;;5058924;28;19908;-78
2021/12/04 04:33:50;;;;;;;;;;;23.70;39.80;;;;;;5058692;28;19908;-82
2021/12/04 04:58:42;;;;;;;;;;;23.60;39.90;;;;;;5073529;28;20317;-79
2021/12/04 05:12:18;;;;;;;;;;;23.60;39.90;;;;;;5075239;28;19920;-82
2021/12/04 05:14:43;;;;;;;;;;;23.60;40.00;;;;;;5073866;28;19908;-81
2021/12/04 05:17:29;;;;;;;;;;;23.60;40.00;;;;;;5074888;28;20004;-82
2021/12/04 05:19:54;;;;;;;;;;;23.60;40.00;;;;;;5074423;28;20299;-82
2021/12/04 05:22:22;;;;;;;;;;;23.60;39.90;;;;;;5074409;28;19973;-81
2021/12/04 05:24:50;;;;;;;;;;;23.60;40.00;;;;;;5074400;28;19935;-83
2021/12/04 05:27:18;;;;;;;;;;;23.60;40.00;;;;;;5058288;28;19948;-86
2021/12/04 05:29:46;;;;;;;;;;;23.60;39.90;;;;;;5057888;28;19920;-80
2021/12/04 05:32:16;;;;;;;;;;;23.60;39.90;;;;;;5073966;28;19909;-81
2021/12/04 05:34:42;;;;;;;;;;;23.60;39.90;;;;;;5073863;28;19913;-80
2021/12/04 05:37:09;;;;;;;;;;;23.60;40.00;;;;;;5073991;28;20287;-82
2021/12/04 05:39:35;;;;;;;;;;;23.60;40.00;;;;;;5074942;28;19913;-80
2021/12/04 05:42:04;;;;;;;;;;;23.60;40.00;;;;;;5074289;28;19934;-79
2021/12/04 05:44:31;;;;;;;;;;;23.60;40.00;;;;;;5091093;28;19909;-79
2021/12/04 05:47:06;;;;;;;;;;;23.60;40.00;;;;;;5074319;28;20345;-84
2021/12/04 05:49:48;;;;;;;;;;;23.60;40.00;;;;;;5075384;28;19948;-83
2021/12/04 05:57:05;;;;;;;;;;;23.60;40.10;;;;;;5075205;28;19909;-82
2021/12/04 05:59:30;;;;;;;;;;;23.60;40.10;;;;;;5085858;28;20294;-81
2021/12/04 06:01:58;;;;;;;;;;;23.60;40.10;;;;;;5095331;28;20295;-80
2021/12/04 06:04:24;;;;;;;;;;;23.60;40.10;;;;;;5094523;28;19972;-80
2021/12/04 06:06:49;;;;;;;;;;;23.60;40.10;;;;;;5094537;28;19908;-83
2021/12/04 06:09:17;;;;;;;;;;;23.60;40.10;;;;;;5078690;28;19915;-84
2021/12/04 06:11:42;;;;;;;;;;;23.60;40.10;;;;;;5098856;28;19908;-80
2021/12/04 06:14:08;;;;;;;;;;;23.60;40.10;;;;;;5098590;28;19920;-80
2021/12/04 06:16:36;;;;;;;;;;;23.60;40.20;;;;;;5082104;28;20021;-79
2021/12/04 06:19:25;;;;;;;;;;;23.60;40.20;;;;;;5099029;28;20348;-81
2021/12/04 06:24:37;;;;;;;;;;;23.60;40.20;;;;;;5098290;28;20312;-79
2021/12/04 06:27:03;;;;;;;;;;;23.50;40.20;;;;;;5098117;28;20302;-82
2021/12/04 06:29:28;;;;;;;;;;;23.60;40.30;;;;;;5098706;28;19908;-84
2021/12/04 06:31:56;;;;;;;;;;;23.60;40.40;;;;;;5099057;28;20391;-81
2021/12/04 06:34:22;;;;;;;;;;;23.50;40.20;;;;;;5098668;28;19976;-81
2021/12/04 06:36:47;;;;;;;;;;;23.60;40.30;;;;;;5099278;28;20401;-79
2021/12/04 06:39:13;;;;;;;;;;;23.50;40.20;;;;;;5098055;28;20321;-82
2021/12/04 06:41:38;;;;;;;;;;;23.50;40.80;;;;;;5098927;28;19920;-83
2021/12/04 06:44:04;;;;;;;;;;;23.50;40.20;;;;;;5098460;28;20333;-82
2021/12/04 06:46:30;;;;;;;;;;;23.50;40.20;;;;;;5098049;28;20328;-83
2021/12/04 06:51:31;;;;;;;;;;;23.50;40.20;;;;;;5097905;28;20325;-79
2021/12/04 06:56:31;;;;;;;;;;;23.50;40.20;;;;;;5098082;28;19943;-81
2021/12/04 06:59:02;;;;;;;;;;;23.50;40.20;;;;;;5097791;28;20373;-80
2021/12/04 07:01:30;;;;;;;;;;;23.50;40.20;;;;;;5098295;28;19966;-81
2021/12/04 07:03:56;;;;;;;;;;;23.50;40.20;;;;;;5097307;28;20356;-80
2021/12/04 07:06:21;;;;;;;;;;;23.50;40.20;;;;;;5097566;28;19908;-86
2021/12/04 07:08:47;;;;;;;;;;;23.50;40.20;;;;;;5097763;28;20021;-81
2021/12/04 07:11:12;;;;;;;;;;;23.50;40.20;;;;;;5097380;28;19908;-82
2021/12/04 07:13:38;;;;;;;;;;;23.50;40.20;;;;;;5080629;28;20023;-82
2021/12/04 07:16:08;;;;;;;;;;;23.50;40.20;;;;;;5097407;28;19908;-84
2021/12/04 07:18:34;;;;;;;;;;;23.50;40.30;;;;;;5097404;28;19919;-79
2021/12/04 07:20:59;;;;;;;;;;;23.50;40.20;;;;;;5096407;28;19908;-81
2021/12/04 07:23:27;;;;;;;;;;;23.50;40.20;;;;;;5097881;28;19908;-80
2021/12/04 07:25:52;;;;;;;;;;;23.50;40.30;;;;;;5096562;28;20345;-82
2021/12/04 07:28:18;;;;;;;;;;;23.50;40.30;;;;;;5096393;28;19997;-80
2021/12/04 07:30:43;;;;;;;;;;;23.50;40.30;;;;;;5096440;28;19908;-82
2021/12/04 07:33:09;;;;;;;;;;;23.50;40.30;;;;;;5097425;28;19958;-79
2021/12/04 07:35:37;;;;;;;;;;;23.40;40.30;;;;;;5079500;28;19973;-82
2021/12/04 07:38:03;;;;;;;;;;;23.40;40.20;;;;;;5096485;28;19908;-83
2021/12/04 07:40:28;;;;;;;;;;;23.50;40.30;;;;;;5079770;28;20505;-82
2021/12/04 07:42:54;;;;;;;;;;;23.50;40.30;;;;;;5096092;28;19961;-79
2021/12/04 07:45:19;;;;;;;;;;;23.50;40.30;;;;;;5096214;28;19999;-78
2021/12/04 07:47:47;;;;;;;;;;;23.50;40.30;;;;;;5096494;28;19936;-81
2021/12/04 07:50:15;;;;;;;;;;;23.50;40.30;;;;;;5096587;28;19961;-81
2021/12/04 07:52:43;;;;;;;;;;;23.40;40.30;;;;;;5096430;28;20257;-80
2021/12/04 07:55:09;;;;;;;;;;;23.50;40.30;;;;;;5080243;28;19908;-81
2021/12/04 07:57:35;;;;;;;;;;;23.40;40.30;;;;;;5096571;28;19934;-83
2021/12/04 08:00:01;;;;;;;;;;;23.40;40.30;;;;;;5080654;28;19923;-78
2021/12/04 08:02:26;;;;;;;;;;;23.40;40.30;;;;;;5076049;28;19909;-80
2021/12/04 08:04:52;;;;;;;;;;;23.40;40.90;;;;;;5076307;28;19918;-79
2021/12/04 08:07:17;;;;;;;;;;;23.40;40.30;;;;;;5075854;28;19913;-79
2021/12/04 08:09:45;;;;;;;;;;;23.40;40.30;;;;;;5076013;28;19908;-81
2021/12/04 08:12:13;;;;;;;;;;;23.40;40.30;;;;;;5075905;28;19913;-80
2021/12/04 08:14:41;;;;;;;;;;;23.40;40.30;;;;;;5059412;28;19948;-79
2021/12/04 08:17:07;;;;;;;;;;;23.40;40.30;;;;;;5059465;28;19971;-79
2021/12/04 08:19:32;;;;;;;;;;;23.40;40.40;;;;;;5058776;28;19924;-77
2021/12/04 08:21:58;;;;;;;;;;;23.40;40.40;;;;;;5075331;28;20277;-81
2021/12/04 08:24:24;;;;;;;;;;;23.40;40.40;;;;;;5058111;28;20007;-80
2021/12/04 08:26:52;;;;;;;;;;;23.40;40.40;;;;;;5058266;28;19908;-80
2021/12/04 08:29:17;;;;;;;;;;;23.40;40.40;;;;;;5075005;28;20244;-82
2021/12/04 08:31:43;;;;;;;;;;;23.40;40.40;;;;;;5057791;28;19908;-81
2021/12/04 08:34:11;;;;;;;;;;;23.40;40.40;;;;;;5076096;28;19916;-80
2021/12/04 08:36:39;;;;;;;;;;;23.40;40.40;;;;;;5058672;28;19919;-78
2021/12/04 08:39:07;;;;;;;;;;;23.40;40.40;;;;;;5058313;28;19912;-79
2021/12/04 08:41:32;;;;;;;;;;;23.40;40.50;;;;;;5058330;28;19909;-83
2021/12/04 08:44:01;;;;;;;;;;;23.40;40.50;;;;;;5057805;28;19923;-81
2021/12/04 08:46:27;;;;;;;;;;;23.40;41.10;;;;;;5074660;28;19908;-80
2021/12/04 08:48:54;;;;;;;;;;;23.40;40.40;;;;;;5074842;28;19919;-80
2021/12/04 08:51:21;;;;;;;;;;;23.40;40.40;;;;;;5075345;28;19908;-84
2021/12/04 08:53:50;;;;;;;;;;;23.40;40.40;;;;;;5074782;28;19908;-80
2021/12/04 08:56:15;;;;;;;;;;;23.40;40.40;;;;;;5075281;28;19908;-80
2021/12/04 08:58:42;;;;;;;;;;;23.40;40.50;;;;;;5079147;28;20334;-79
2021/12/04 09:01:12;;;;;;;;;;;23.40;40.40;;;;;;5094768;28;19908;-79
2021/12/04 09:03:47;;;;;;;;;;;23.40;40.50;;;;;;5094901;28;20375;-79
2021/12/04 09:06:12;;;;;;;;;;;23.40;40.50;;;;;;5094843;28;20006;-80
2021/12/04 09:08:38;;;;;;;;;;;23.40;40.50;;;;;;5094530;28;19963;-83
2021/12/04 09:11:07;;;;;;;;;;;23.40;40.50;;;;;;5095399;28;19958;-81
2021/12/04 09:13:33;;;;;;;;;;;23.40;40.50;;;;;;5095376;28;19919;-80
2021/12/04 09:16:01;;;;;;;;;;;23.40;40.50;;;;;;5094329;28;20066;-80
2021/12/04 09:18:26;;;;;;;;;;;23.40;40.50;;;;;;5094589;28;20002;-84
2021/12/04 09:20:54;;;;;;;;;;;23.40;40.50;;;;;;5094429;28;19993;-81
2021/12/04 09:23:20;;;;;;;;;;;23.40;40.60;;;;;;5094541;28;20260;-79
2021/12/04 09:25:48;;;;;;;;;;;23.40;40.50;;;;;;5077237;28;20268;-82
2021/12/04 10:22:15;;;;;;;;;;;23.30;40.70;;;;;;5016291;28;19924;-80
2021/12/04 10:25:13;;;;;;;;;;;23.30;40.70;;;;;;5038744;28;20320;-81
2021/12/04 10:33:11;;;;;;;;;;;23.30;40.80;;;;;;5053468;28;19919;-83
2021/12/04 10:35:37;;;;;;;;;;;23.30;40.80;;;;;;5037369;28;19909;-80
2021/12/04 10:38:07;;;;;;;;;;;23.30;40.80;;;;;;5036582;28;19920;-80
2021/12/04 10:40:39;;;;;;;;;;;23.30;40.80;;;;;;5053455;28;19913;-80
2021/12/04 10:43:06;;;;;;;;;;;23.30;40.70;;;;;;5053080;28;19963;-79
2021/12/04 10:45:33;;;;;;;;;;;23.30;40.70;;;;;;5036749;28;19908;-80
2021/12/04 10:48:02;;;;;;;;;;;23.30;40.70;;;;;;5053059;28;20277;-82
2021/12/04 10:50:45;;;;;;;;;;;23.30;40.70;;;;;;5053033;28;20379;-81
2021/12/04 10:53:14;;;;;;;;;;;23.30;40.70;;;;;;5053173;28;19909;-80
2021/12/04 11:01:25;;;;;;;;;;;23.30;40.70;;;;;;5068336;28;19919;-81
2021/12/04 11:04:08;;;;;;;;;;;23.30;40.80;;;;;;5068541;28;19909;-79
2021/12/04 11:23:40;;;;;;;;;;;23.30;41.00;;;;;;5058321;28;19909;-81
2021/12/04 11:44:02;;;;;;;;;;;23.30;41.00;;;;;;5057092;28;19916;-80
2021/12/04 11:49:12;;;;;;;;;;;23.30;41.00;;;;;;5056454;28;19909;-82
2021/12/04 11:51:44;;;;;;;;;;;23.30;41.00;;;;;;5056386;28;19975;-82
2021/12/04 11:54:12;;;;;;;;;;;23.30;41.00;;;;;;5056062;28;19916;-77
2021/12/04 11:56:37;;;;;;;;;;;23.30;41.00;;;;;;5058975;28;20292;-80
2021/12/04 11:59:03;;;;;;;;;;;23.30;41.00;;;;;;5077955;28;19912;-84
2021/12/04 12:01:33;;;;;;;;;;;23.30;41.30;;;;;;5076089;28;20329;-81
2021/12/04 12:04:02;;;;;;;;;;;23.40;41.40;;;;;;5059840;28;19909;-83
2021/12/04 12:06:30;;;;;;;;;;;23.40;41.30;;;;;;5059087;28;20392;-82
2021/12/04 12:08:59;;;;;;;;;;;23.50;41.20;;;;;;5059874;28;20329;-80
2021/12/04 12:11:26;;;;;;;;;;;23.60;41.00;;;;;;5059835;28;19969;-81
2021/12/04 12:13:55;;;;;;;;;;;23.50;40.80;;;;;;5076553;28;20297;-85
2021/12/04 12:16:25;;;;;;;;;;;23.60;41.00;;;;;;5076494;28;19982;-81
2021/12/04 12:18:55;;;;;;;;;;;23.60;41.30;;;;;;5076924;28;19923;-84
2021/12/04 12:21:26;;;;;;;;;;;23.60;41.60;;;;;;5056807;28;19919;-88
2021/12/04 12:38:30;;;;;;;;;;;22.00;41.80;;;;;;5084682;28;19969;-82
2021/12/04 12:40:57;;;;;;;;;;;22.30;42.80;;;;;;5075713;28;20357;-82
2021/12/04 12:43:23;;;;;;;;;;;22.50;44.20;;;;;;5075337;28;19916;-79
2021/12/04 12:45:54;;;;;;;;;;;22.70;44.50;;;;;;5075076;28;19912;-80
2021/12/04 12:48:22;;;;;;;;;;;22.80;44.50;;;;;;5075318;28;19909;-78
2021/12/04 12:50:48;;;;;;;;;;;22.90;44.40;;;;;;5075945;28;19944;-78
2021/12/04 12:53:15;;;;;;;;;;;23.10;44.40;;;;;;5075085;28;20352;-79
2021/12/04 12:55:41;;;;;;;;;;;23.20;44.10;;;;;;5088220;28;19908;-80
2021/12/04 12:58:15;;;;;;;;;;;23.30;44.00;;;;;;5078534;28;19919;-82
2021/12/04 13:11:56;;;;;;;;;;;23.50;43.30;;;;;;5095057;28;19973;-78
2021/12/04 13:14:22;;;;;;;;;;;23.50;43.30;;;;;;5078386;28;19919;-80
2021/12/04 13:16:51;;;;;;;;;;;23.50;43.20;;;;;;5096107;28;19908;-79
2021/12/04 13:19:21;;;;;;;;;;;23.50;43.20;;;;;;5093979;28;19977;-79
2021/12/04 13:21:48;;;;;;;;;;;23.50;43.20;;;;;;5095237;28;19908;-78
2021/12/04 13:24:13;;;;;;;;;;;23.50;43.10;;;;;;5094932;28;19924;-78
2021/12/04 13:26:41;;;;;;;;;;;23.50;43.00;;;;;;5094871;28;19935;-79
2021/12/04 13:29:10;;;;;;;;;;;23.50;43.00;;;;;;5094524;28;19916;-80
2021/12/04 13:31:37;;;;;;;;;;;23.50;43.00;;;;;;5094354;28;19939;-78
2021/12/04 13:34:03;;;;;;;;;;;23.50;42.90;;;;;;5094272;28;19908;-78
2021/12/04 13:36:29;;;;;;;;;;;23.50;43.00;;;;;;5094368;28;19912;-79
2021/12/04 13:39:04;;;;;;;;;;;23.50;43.00;;;;;;5093807;28;20337;-77
2021/12/04 13:41:29;;;;;;;;;;;23.50;42.90;;;;;;5077264;28;19919;-77
2021/12/04 13:43:58;;;;;;;;;;;23.50;42.90;;;;;;5094147;28;19909;-79
2021/12/04 13:46:24;;;;;;;;;;;23.50;42.90;;;;;;5093654;28;19908;-78
2021/12/04 13:48:52;;;;;;;;;;;23.50;42.90;;;;;;5095021;28;19918;-79
2021/12/04 13:51:17;;;;;;;;;;;23.50;43.00;;;;;;5077719;28;19908;-80
2021/12/04 13:53:43;;;;;;;;;;;23.50;43.00;;;;;;5094267;28;19908;-80
2021/12/04 13:56:11;;;;;;;;;;;23.50;43.10;;;;;;5094145;28;19958;-77
2021/12/04 13:58:47;;;;;;;;;;;23.50;43.10;;;;;;5090932;28;19920;-79
2021/12/04 14:01:15;;;;;;;;;;;23.50;43.10;;;;;;5075075;28;19943;-79
2021/12/04 14:03:40;;;;;;;;;;;23.50;43.00;;;;;;5058404;28;19909;-77
2021/12/04 14:06:10;;;;;;;;;;;23.50;43.00;;;;;;5074971;28;19934;-79
2021/12/04 14:08:36;;;;;;;;;;;23.40;42.90;;;;;;5073831;28;20018;-82
2021/12/04 14:11:01;;;;;;;;;;;23.50;42.90;;;;;;5074196;28;19955;-80
2021/12/04 14:13:31;;;;;;;;;;;23.40;43.40;;;;;;5074878;28;19909;-81
2021/12/04 14:15:59;;;;;;;;;;;23.40;42.80;;;;;;5057669;28;19912;-78
2021/12/04 14:18:26;;;;;;;;;;;23.40;42.80;;;;;;5073782;28;19909;-80
2021/12/04 14:20:55;;;;;;;;;;;23.40;42.80;;;;;;5073842;28;19912;-78
2021/12/04 14:23:25;;;;;;;;;;;23.40;42.80;;;;;;5074455;28;20292;-80
2021/12/04 14:25:54;;;;;;;;;;;23.40;42.80;;;;;;5057074;28;19921;-78
2021/12/04 14:28:22;;;;;;;;;;;23.40;42.80;;;;;;5073913;28;19920;-78
2021/12/04 14:30:47;;;;;;;;;;;23.40;42.80;;;;;;5059358;28;19909;-78
2021/12/04 14:33:15;;;;;;;;;;;23.40;42.80;;;;;;5077879;28;20510;-78
2021/12/04 14:35:44;;;;;;;;;;;23.40;42.80;;;;;;5077906;28;19959;-81
2021/12/04 14:38:11;;;;;;;;;;;23.40;42.80;;;;;;5077568;28;19952;-79
2021/12/04 14:40:38;;;;;;;;;;;23.40;42.80;;;;;;5077600;28;19920;-80
2021/12/04 14:43:05;;;;;;;;;;;23.40;42.80;;;;;;5078286;28;19981;-80
2021/12/04 14:45:34;;;;;;;;;;;23.40;42.80;;;;;;5060855;28;19908;-79
2021/12/04 14:48:04;;;;;;;;;;;23.40;42.80;;;;;;5060607;28;19961;-81
2021/12/04 14:50:29;;;;;;;;;;;23.40;42.80;;;;;;5078291;28;19923;-81
2021/12/04 14:52:56;;;;;;;;;;;23.30;42.70;;;;;;5077452;28;19909;-79
2021/12/04 14:55:23;;;;;;;;;;;23.30;42.70;;;;;;5060397;28;19931;-81
2021/12/04 14:57:51;;;;;;;;;;;23.40;42.80;;;;;;5077327;28;20005;-79
2021/12/04 15:00:33;;;;;;;;;;;23.30;42.70;;;;;;5095805;28;19912;-78
2021/12/04 15:03:00;;;;;;;;;;;23.30;42.70;;;;;;5098272;28;20283;-81
2021/12/04 15:05:33;;;;;;;;;;;23.30;42.70;;;;;;5097818;28;21724;-80
2021/12/04 15:08:05;;;;;;;;;;;23.30;42.70;;;;;;5098635;28;19920;-80
2021/12/04 15:10:33;;;;;;;;;;;23.30;42.70;;;;;;5098473;28;20014;-79
2021/12/04 15:12:58;;;;;;;;;;;23.30;42.70;;;;;;5097453;28;20408;-79
2021/12/04 15:15:30;;;;;;;;;;;23.30;42.70;;;;;;5097594;28;20002;-79
2021/12/04 15:17:57;;;;;;;;;;;23.30;42.70;;;;;;5097979;28;19908;-78
2021/12/04 15:20:31;;;;;;;;;;;23.30;42.70;;;;;;5097912;28;20038;-78
2021/12/04 15:22:58;;;;;;;;;;;23.30;42.60;;;;;;5097766;28;19909;-78
2021/12/04 15:25:28;;;;;;;;;;;23.30;42.60;;;;;;5097358;28;19994;-77
2021/12/04 15:27:53;;;;;;;;;;;23.30;42.70;;;;;;5097458;28;19982;-80
2021/12/04 15:30:19;;;;;;;;;;;23.30;42.70;;;;;;5098721;28;19912;-78
2021/12/04 15:32:45;;;;;;;;;;;23.30;42.70;;;;;;5097337;28;19965;-77
2021/12/04 15:35:30;;;;;;;;;;;23.30;42.70;;;;;;5097458;28;20257;-80
2021/12/04 15:38:03;;;;;;;;;;;23.30;42.60;;;;;;5097223;28;19987;-79
2021/12/04 15:40:40;;;;;;;;;;;23.30;42.60;;;;;;5080872;28;19947;-81
2021/12/04 15:45:44;;;;;;;;;;;23.30;42.60;;;;;;5097188;28;20042;-77
2021/12/04 15:53:16;;;;;;;;;;;23.30;42.60;;;;;;5097122;28;19908;-79
2021/12/04 15:55:53;;;;;;;;;;;23.30;42.60;;;;;;5096744;28;19919;-79
2021/12/04 15:58:19;;;;;;;;;;;23.30;42.60;;;;;;5094931;28;19912;-79
2021/12/04 16:00:53;;;;;;;;;;;23.30;42.60;;;;;;5077923;28;20357;-81
2021/12/04 16:03:22;;;;;;;;;;;23.30;42.60;;;;;;5076390;28;20054;-79
2021/12/04 16:05:57;;;;;;;;;;;23.30;42.60;;;;;;5076603;28;19908;-79
2021/12/04 16:08:23;;;;;;;;;;;23.30;42.60;;;;;;5059628;28;19909;-80
2021/12/04 16:10:51;;;;;;;;;;;23.30;42.60;;;;;;5076487;28;19912;-77
2021/12/04 16:13:23;;;;;;;;;;;23.30;42.50;;;;;;5076197;28;19920;-80
2021/12/04 16:15:48;;;;;;;;;;;23.30;42.60;;;;;;5060338;28;19958;-82
2021/12/04 16:18:16;;;;;;;;;;;23.30;42.60;;;;;;5076198;28;19959;-77
2021/12/04 16:20:41;;;;;;;;;;;23.30;42.50;;;;;;5059408;28;19912;-79
2021/12/04 16:23:07;;;;;;;;;;;23.30;42.50;;;;;;5059609;28;19919;-79
2021/12/04 16:25:39;;;;;;;;;;;23.30;42.50;;;;;;5076166;28;19930;-78
2021/12/04 16:35:45;;;;;;;;;;;23.30;42.50;;;;;;5075995;28;19919;-80
2021/12/04 16:38:12;;;;;;;;;;;23.30;42.50;;;;;;5059989;28;19973;-78
2021/12/04 16:40:38;;;;;;;;;;;23.30;42.50;;;;;;5075486;28;19912;-78
2021/12/04 16:43:11;;;;;;;;;;;23.30;42.50;;;;;;5075876;28;20278;-81
2021/12/04 16:45:40;;;;;;;;;;;23.30;42.50;;;;;;5075458;28;19920;-77
2021/12/04 16:48:07;;;;;;;;;;;23.30;42.50;;;;;;5075434;28;19912;-80
2021/12/04 16:56:26;;;;;;;;;;;23.30;42.50;;;;;;5076272;28;19918;-78
2021/12/04 16:58:53;;;;;;;;;;;23.20;42.50;;;;;;5081946;28;20344;-79
2021/12/04 17:01:18;;;;;;;;;;;23.30;42.50;;;;;;5095136;28;19951;-80
2021/12/04 17:03:44;;;;;;;;;;;23.20;42.50;;;;;;5094954;28;19962;-80
2021/12/04 17:06:10;;;;;;;;;;;23.30;42.50;;;;;;5095014;28;19908;-79
2021/12/04 17:08:35;;;;;;;;;;;23.30;42.50;;;;;;5095046;28;19986;-81
2021/12/04 17:11:03;;;;;;;;;;;23.30;42.50;;;;;;5078004;28;19916;-78
2021/12/04 17:13:32;;;;;;;;;;;23.30;42.50;;;;;;5095164;28;19912;-77
2021/12/04 17:16:00;;;;;;;;;;;23.30;42.50;;;;;;5078053;28;19912;-79
2021/12/04 17:18:26;;;;;;;;;;;23.30;42.50;;;;;;5095863;28;19919;-78
2021/12/04 17:20:52;;;;;;;;;;;23.30;42.40;;;;;;5094876;28;19920;-77
2021/12/04 17:23:19;;;;;;;;;;;23.30;42.40;;;;;;5077991;28;19908;-77
2021/12/04 17:25:45;;;;;;;;;;;23.30;42.40;;;;;;5095282;28;19919;-78
2021/12/04 17:28:10;;;;;;;;;;;23.30;42.40;;;;;;5078128;28;19919;-78
2021/12/04 17:30:37;;;;;;;;;;;23.30;42.40;;;;;;5077883;28;19912;-80
2021/12/04 17:33:05;;;;;;;;;;;23.30;42.40;;;;;;5094714;28;19908;-80
2021/12/04 17:35:31;;;;;;;;;;;23.30;42.30;;;;;;5077984;28;20007;-78
2021/12/04 17:37:59;;;;;;;;;;;23.30;42.30;;;;;;5094341;28;20387;-78
2021/12/04 17:40:25;;;;;;;;;;;23.30;42.30;;;;;;5077435;28;20253;-80
2021/12/04 17:42:55;;;;;;;;;;;23.30;42.30;;;;;;5094512;28;20003;-78
2021/12/04 17:45:21;;;;;;;;;;;23.30;42.30;;;;;;5077910;28;19915;-77
2021/12/04 17:47:48;;;;;;;;;;;23.30;42.20;;;;;;5094594;28;19908;-81
2021/12/04 17:50:15;;;;;;;;;;;23.30;42.20;;;;;;5094480;28;19908;-78
2021/12/04 17:52:43;;;;;;;;;;;23.30;42.20;;;;;;5094464;28;19946;-80
2021/12/04 17:55:09;;;;;;;;;;;23.30;42.20;;;;;;5094791;28;19912;-80
2021/12/04 17:57:36;;;;;;;;;;;23.30;42.20;;;;;;5094248;28;20061;-78